MET'MAP v2.0
soon released !

Expected late october,
this new version will be
more efficient, smarter,
and hosted on a brand new
server x3 powerfull...
...and still free !


Not compatible ?
Try the mobile version !

LOG IN : | Subscribe | Disclaimer | Who is Orbifly ? |
ICAO code :
Legend : VFR Marginal VFR IFR Intensive IFR Very Intensive IFR
Visi :
Ceiling :
>= 8 km
>= 3000ft
5 to 8 km
1000 to 3000 ft
1500m to 5 km
500 to 1000 ft
800 to 1500m
200 to 500 ft
< 800m
< 200 ft

METAR - EBFN Koksijde - 08 Apr 2020 01:27 UTC
Data Sources :     NOAA   


- Airport Elevation : 20 ft
- No reported NOTAMs.


EBFN - Koksijde

Latest METAR recorded : 2015/08/11 07:55 EBFN 110755Z VRB02KT 9999 FEW010 SCT070 BKN150 19/16 Q1019 BLU BLU TEMPO WHT
TAF TAF EBFN
Valid from the 07 at 19:00 until the 08 at 07:00 UTC


071541Z 0719/0807 09007KT 9999 FEW080 SCT260
BECMG 0719/0721 FEW080 SCT090
TEMPO 0722/0802 FEW070 BKN080
BECMG 0802/0804 09004KT 8000

Source NOAA


MET'MAP, your aeronautical weather chart ! - Copyright ORBIFLY December 2007

Programming & Development : Alexandra Zaïnal
Co-Developer : Marc-Olivier Méhu
Technical & hardware support : Manuel Goepfert
Concept & Financing : Baudouin d'Aumeries